sensor_id;sensor_type;location;lat;lon;timestamp;temperature;humidity
24152;DHT22;12311;50.866;4.332;2022-07-15T00:00:42;16.20;99.90
24152;DHT22;12311;50.866;4.332;2022-07-15T00:03:07;16.20;99.90
24152;DHT22;12311;50.866;4.332;2022-07-15T00:05:33;16.20;99.90
24152;DHT22;12311;50.866;4.332;2022-07-15T00:07:59;16.10;99.90
24152;DHT22;12311;50.866;4.332;2022-07-15T00:10:27;16.00;99.90
24152;DHT22;12311;50.866;4.332;2022-07-15T00:12:55;15.90;99.90
24152;DHT22;12311;50.866;4.332;2022-07-15T00:15:27;15.90;99.90
24152;DHT22;12311;50.866;4.332;2022-07-15T00:17:53;15.90;99.90
24152;DHT22;12311;50.866;4.332;2022-07-15T00:20:20;16.00;99.90
24152;DHT22;12311;50.866;4.332;2022-07-15T00:22:47;16.00;99.90
24152;DHT22;12311;50.866;4.332;2022-07-15T00:25:13;15.90;99.90
24152;DHT22;12311;50.866;4.332;2022-07-15T00:27:57;15.90;99.90
24152;DHT22;12311;50.866;4.332;2022-07-15T00:30:24;15.80;99.90
24152;DHT22;12311;50.866;4.332;2022-07-15T00:32:52;15.80;99.90
24152;DHT22;12311;50.866;4.332;2022-07-15T00:35:18;15.80;99.90
24152;DHT22;12311;50.866;4.332;2022-07-15T00:37:44;15.90;99.90
24152;DHT22;12311;50.866;4.332;2022-07-15T00:40:10;15.80;99.90
24152;DHT22;12311;50.866;4.332;2022-07-15T00:42:37;15.70;99.90
24152;DHT22;12311;50.866;4.332;2022-07-15T00:47:41;15.50;99.90
24152;DHT22;12311;50.866;4.332;2022-07-15T00:50:07;15.50;99.90
24152;DHT22;12311;50.866;4.332;2022-07-15T00:52:34;15.50;99.90
24152;DHT22;12311;50.866;4.332;2022-07-15T00:55:01;15.50;99.90
24152;DHT22;12311;50.866;4.332;2022-07-15T00:57:29;15.40;99.90
24152;DHT22;12311;50.866;4.332;2022-07-15T00:59:57;15.40;99.90
24152;DHT22;12311;50.866;4.332;2022-07-15T01:02:24;15.40;99.90
24152;DHT22;12311;50.866;4.332;2022-07-15T01:04:50;15.40;99.90
24152;DHT22;12311;50.866;4.332;2022-07-15T01:07:18;15.40;99.90
24152;DHT22;12311;50.866;4.332;2022-07-15T01:09:43;15.40;99.90
24152;DHT22;12311;50.866;4.332;2022-07-15T01:12:09;15.40;99.90
24152;DHT22;12311;50.866;4.332;2022-07-15T01:14:35;15.30;99.90
24152;DHT22;12311;50.866;4.332;2022-07-15T01:17:01;15.30;99.90
24152;DHT22;12311;50.866;4.332;2022-07-15T01:19:27;15.30;99.90
24152;DHT22;12311;50.866;4.332;2022-07-15T01:21:52;15.30;99.90
24152;DHT22;12311;50.866;4.332;2022-07-15T01:24:18;15.20;99.90
24152;DHT22;12311;50.866;4.332;2022-07-15T01:26:43;15.20;99.90
24152;DHT22;12311;50.866;4.332;2022-07-15T01:29:09;15.30;99.90
24152;DHT22;12311;50.866;4.332;2022-07-15T01:31:35;15.20;99.90
24152;DHT22;12311;50.866;4.332;2022-07-15T01:34:00;15.30;99.90
24152;DHT22;12311;50.866;4.332;2022-07-15T01:36:26;15.20;99.90
24152;DHT22;12311;50.866;4.332;2022-07-15T01:38:52;15.20;99.90
24152;DHT22;12311;50.866;4.332;2022-07-15T01:41:17;15.20;99.90
24152;DHT22;12311;50.866;4.332;2022-07-15T01:43:43;15.20;99.90
24152;DHT22;12311;50.866;4.332;2022-07-15T01:46:08;15.20;99.90
24152;DHT22;12311;50.866;4.332;2022-07-15T01:48:34;15.00;99.90
24152;DHT22;12311;50.866;4.332;2022-07-15T01:51:18;15.00;99.90
24152;DHT22;12311;50.866;4.332;2022-07-15T01:53:44;15.00;99.90
24152;DHT22;12311;50.866;4.332;2022-07-15T01:56:10;14.80;99.90
24152;DHT22;12311;50.866;4.332;2022-07-15T01:58:35;14.80;99.90
24152;DHT22;12311;50.866;4.332;2022-07-15T02:01:01;14.80;99.90
24152;DHT22;12311;50.866;4.332;2022-07-15T02:03:26;14.90;99.90
24152;DHT22;12311;50.866;4.332;2022-07-15T02:05:52;14.90;99.90
24152;DHT22;12311;50.866;4.332;2022-07-15T02:08:18;14.90;99.90
24152;DHT22;12311;50.866;4.332;2022-07-15T02:10:43;14.90;99.90
24152;DHT22;12311;50.866;4.332;2022-07-15T02:13:11;14.90;99.90
24152;DHT22;12311;50.866;4.332;2022-07-15T02:15:37;14.80;99.90
24152;DHT22;12311;50.866;4.332;2022-07-15T02:18:04;14.80;99.90
24152;DHT22;12311;50.866;4.332;2022-07-15T02:20:30;14.70;99.90
24152;DHT22;12311;50.866;4.332;2022-07-15T02:22:56;14.60;99.90
24152;DHT22;12311;50.866;4.332;2022-07-15T02:25:26;14.70;99.90
24152;DHT22;12311;50.866;4.332;2022-07-15T02:27:59;14.70;99.90
24152;DHT22;12311;50.866;4.332;2022-07-15T02:30:30;14.70;99.90
24152;DHT22;12311;50.866;4.332;2022-07-15T02:32:57;14.60;99.90
24152;DHT22;12311;50.866;4.332;2022-07-15T02:35:23;14.60;99.90
24152;DHT22;12311;50.866;4.332;2022-07-15T02:37:48;14.70;99.90
24152;DHT22;12311;50.866;4.332;2022-07-15T02:40:14;14.70;99.90
24152;DHT22;12311;50.866;4.332;2022-07-15T02:42:45;14.80;99.90
24152;DHT22;12311;50.866;4.332;2022-07-15T02:45:11;14.70;99.90
24152;DHT22;12311;50.866;4.332;2022-07-15T02:47:37;14.90;99.90
24152;DHT22;12311;50.866;4.332;2022-07-15T02:50:03;14.80;99.90
24152;DHT22;12311;50.866;4.332;2022-07-15T02:52:28;14.90;99.90
24152;DHT22;12311;50.866;4.332;2022-07-15T02:54:54;14.90;99.90
24152;DHT22;12311;50.866;4.332;2022-07-15T02:57:20;14.80;99.90
24152;DHT22;12311;50.866;4.332;2022-07-15T02:59:45;14.70;99.90
24152;DHT22;12311;50.866;4.332;2022-07-15T03:02:11;14.80;99.90
24152;DHT22;12311;50.866;4.332;2022-07-15T03:04:36;14.70;99.90
24152;DHT22;12311;50.866;4.332;2022-07-15T03:07:03;14.60;99.90
24152;DHT22;12311;50.866;4.332;2022-07-15T03:09:29;14.60;99.90
24152;DHT22;12311;50.866;4.332;2022-07-15T03:11:54;14.60;99.90
24152;DHT22;12311;50.866;4.332;2022-07-15T03:14:20;14.70;99.90
24152;DHT22;12311;50.866;4.332;2022-07-15T03:16:46;14.70;99.90
24152;DHT22;12311;50.866;4.332;2022-07-15T03:19:12;14.60;99.90
24152;DHT22;12311;50.866;4.332;2022-07-15T03:21:37;14.60;99.90
24152;DHT22;12311;50.866;4.332;2022-07-15T03:24:03;14.60;99.90
24152;DHT22;12311;50.866;4.332;2022-07-15T03:26:29;14.50;99.90
24152;DHT22;12311;50.866;4.332;2022-07-15T03:28:55;14.50;99.90
24152;DHT22;12311;50.866;4.332;2022-07-15T03:31:23;14.50;99.90
24152;DHT22;12311;50.866;4.332;2022-07-15T03:33:48;14.50;99.90
24152;DHT22;12311;50.866;4.332;2022-07-15T03:36:14;14.50;99.90
24152;DHT22;12311;50.866;4.332;2022-07-15T03:38:39;14.50;99.90
24152;DHT22;12311;50.866;4.332;2022-07-15T03:41:05;14.60;99.90
24152;DHT22;12311;50.866;4.332;2022-07-15T03:43:31;14.50;99.90
24152;DHT22;12311;50.866;4.332;2022-07-15T03:45:56;14.50;99.90
24152;DHT22;12311;50.866;4.332;2022-07-15T03:48:22;14.50;99.90
24152;DHT22;12311;50.866;4.332;2022-07-15T03:50:48;14.40;99.90
24152;DHT22;12311;50.866;4.332;2022-07-15T03:53:14;14.30;99.90
24152;DHT22;12311;50.866;4.332;2022-07-15T03:55:39;14.30;99.90
24152;DHT22;12311;50.866;4.332;2022-07-15T03:58:05;14.40;99.90
24152;DHT22;12311;50.866;4.332;2022-07-15T04:00:31;14.50;99.90
24152;DHT22;12311;50.866;4.332;2022-07-15T04:02:56;14.60;99.90
24152;DHT22;12311;50.866;4.332;2022-07-15T04:05:22;14.50;99.90
24152;DHT22;12311;50.866;4.332;2022-07-15T04:07:48;14.40;99.90
24152;DHT22;12311;50.866;4.332;2022-07-15T04:10:14;14.40;99.90
24152;DHT22;12311;50.866;4.332;2022-07-15T04:12:40;14.40;99.90
24152;DHT22;12311;50.866;4.332;2022-07-15T04:15:07;14.40;99.90
24152;DHT22;12311;50.866;4.332;2022-07-15T04:17:33;14.50;99.90
24152;DHT22;12311;50.866;4.332;2022-07-15T04:19:59;14.60;99.90
24152;DHT22;12311;50.866;4.332;2022-07-15T04:22:25;14.60;99.90
24152;DHT22;12311;50.866;4.332;2022-07-15T04:24:51;14.70;99.90
24152;DHT22;12311;50.866;4.332;2022-07-15T04:27:17;14.70;99.90
24152;DHT22;12311;50.866;4.332;2022-07-15T04:29:43;14.70;99.90
24152;DHT22;12311;50.866;4.332;2022-07-15T04:32:09;14.70;99.90
24152;DHT22;12311;50.866;4.332;2022-07-15T04:34:35;14.70;99.90
24152;DHT22;12311;50.866;4.332;2022-07-15T04:37:00;14.80;99.90
24152;DHT22;12311;50.866;4.332;2022-07-15T04:39:26;14.90;99.90
24152;DHT22;12311;50.866;4.332;2022-07-15T04:41:51;14.90;99.90
24152;DHT22;12311;50.866;4.332;2022-07-15T04:44:20;14.90;99.90
24152;DHT22;12311;50.866;4.332;2022-07-15T04:46:46;14.90;99.90
24152;DHT22;12311;50.866;4.332;2022-07-15T04:49:11;15.00;99.90
24152;DHT22;12311;50.866;4.332;2022-07-15T04:51:55;15.00;99.90
24152;DHT22;12311;50.866;4.332;2022-07-15T04:54:21;15.00;99.90
24152;DHT22;12311;50.866;4.332;2022-07-15T04:56:47;15.10;99.90
24152;DHT22;12311;50.866;4.332;2022-07-15T04:59:12;15.20;99.90
24152;DHT22;12311;50.866;4.332;2022-07-15T05:01:38;15.40;99.90
24152;DHT22;12311;50.866;4.332;2022-07-15T05:04:04;15.50;99.90
24152;DHT22;12311;50.866;4.332;2022-07-15T05:06:29;15.70;99.90
24152;DHT22;12311;50.866;4.332;2022-07-15T05:08:55;15.80;99.90
24152;DHT22;12311;50.866;4.332;2022-07-15T05:11:20;15.70;99.90
24152;DHT22;12311;50.866;4.332;2022-07-15T05:13:46;15.70;99.90
24152;DHT22;12311;50.866;4.332;2022-07-15T05:16:12;15.80;99.90
24152;DHT22;12311;50.866;4.332;2022-07-15T05:18:37;15.70;99.90
24152;DHT22;12311;50.866;4.332;2022-07-15T05:21:03;15.60;99.90
24152;DHT22;12311;50.866;4.332;2022-07-15T05:23:29;15.60;99.90
24152;DHT22;12311;50.866;4.332;2022-07-15T05:25:55;15.60;99.90
24152;DHT22;12311;50.866;4.332;2022-07-15T05:28:21;15.60;99.90
24152;DHT22;12311;50.866;4.332;2022-07-15T05:30:47;15.60;99.90
24152;DHT22;12311;50.866;4.332;2022-07-15T05:33:15;15.80;99.90
24152;DHT22;12311;50.866;4.332;2022-07-15T05:35:41;15.80;99.90
24152;DHT22;12311;50.866;4.332;2022-07-15T05:38:06;15.80;99.90
24152;DHT22;12311;50.866;4.332;2022-07-15T05:40:32;15.90;99.90
24152;DHT22;12311;50.866;4.332;2022-07-15T05:42:59;16.00;99.90
24152;DHT22;12311;50.866;4.332;2022-07-15T05:45:24;16.20;99.90
24152;DHT22;12311;50.866;4.332;2022-07-15T05:47:50;16.10;99.90
24152;DHT22;12311;50.866;4.332;2022-07-15T05:50:17;16.00;99.90
24152;DHT22;12311;50.866;4.332;2022-07-15T05:52:43;16.10;99.90
24152;DHT22;12311;50.866;4.332;2022-07-15T05:55:09;16.10;99.90
24152;DHT22;12311;50.866;4.332;2022-07-15T05:57:35;16.20;99.90
24152;DHT22;12311;50.866;4.332;2022-07-15T06:00:00;16.30;99.90
24152;DHT22;12311;50.866;4.332;2022-07-15T06:02:26;16.50;99.90
24152;DHT22;12311;50.866;4.332;2022-07-15T06:04:52;16.50;99.90
24152;DHT22;12311;50.866;4.332;2022-07-15T06:07:17;16.50;99.90
24152;DHT22;12311;50.866;4.332;2022-07-15T06:09:43;16.50;99.90
24152;DHT22;12311;50.866;4.332;2022-07-15T06:12:09;16.60;99.90
24152;DHT22;12311;50.866;4.332;2022-07-15T06:14:35;16.60;99.90
24152;DHT22;12311;50.866;4.332;2022-07-15T06:17:00;16.70;99.90
24152;DHT22;12311;50.866;4.332;2022-07-15T06:19:26;16.80;99.90
24152;DHT22;12311;50.866;4.332;2022-07-15T06:21:52;16.80;99.90
24152;DHT22;12311;50.866;4.332;2022-07-15T06:24:18;16.80;99.90
24152;DHT22;12311;50.866;4.332;2022-07-15T06:26:44;16.90;99.90
24152;DHT22;12311;50.866;4.332;2022-07-15T06:29:10;17.00;99.90
24152;DHT22;12311;50.866;4.332;2022-07-15T06:31:36;17.10;99.90
24152;DHT22;12311;50.866;4.332;2022-07-15T06:34:01;17.00;99.90
24152;DHT22;12311;50.866;4.332;2022-07-15T06:36:27;17.10;99.90
24152;DHT22;12311;50.866;4.332;2022-07-15T06:38:53;17.10;99.90
24152;DHT22;12311;50.866;4.332;2022-07-15T06:41:19;17.20;99.90
24152;DHT22;12311;50.866;4.332;2022-07-15T06:43:45;17.20;99.90
24152;DHT22;12311;50.866;4.332;2022-07-15T06:46:11;17.40;99.90
24152;DHT22;12311;50.866;4.332;2022-07-15T06:48:37;17.50;99.90
24152;DHT22;12311;50.866;4.332;2022-07-15T06:51:04;17.60;99.90
24152;DHT22;12311;50.866;4.332;2022-07-15T06:53:30;17.70;99.90
24152;DHT22;12311;50.866;4.332;2022-07-15T06:55:56;17.80;99.90
24152;DHT22;12311;50.866;4.332;2022-07-15T06:58:22;17.90;99.90
24152;DHT22;12311;50.866;4.332;2022-07-15T07:00:48;18.00;99.90
24152;DHT22;12311;50.866;4.332;2022-07-15T07:03:13;18.20;99.90
24152;DHT22;12311;50.866;4.332;2022-07-15T07:05:39;18.30;99.90
24152;DHT22;12311;50.866;4.332;2022-07-15T07:08:05;18.50;99.90
24152;DHT22;12311;50.866;4.332;2022-07-15T07:10:31;18.70;99.90
24152;DHT22;12311;50.866;4.332;2022-07-15T07:12:57;19.00;99.90
24152;DHT22;12311;50.866;4.332;2022-07-15T07:15:22;19.10;99.90
24152;DHT22;12311;50.866;4.332;2022-07-15T07:17:51;19.10;99.90
24152;DHT22;12311;50.866;4.332;2022-07-15T07:20:17;19.30;99.90
24152;DHT22;12311;50.866;4.332;2022-07-15T07:22:43;19.60;99.90
24152;DHT22;12311;50.866;4.332;2022-07-15T07:25:08;19.80;99.90
24152;DHT22;12311;50.866;4.332;2022-07-15T07:27:34;19.80;99.90
24152;DHT22;12311;50.866;4.332;2022-07-15T07:30:00;19.80;99.90
24152;DHT22;12311;50.866;4.332;2022-07-15T07:32:30;19.60;99.90
24152;DHT22;12311;50.866;4.332;2022-07-15T07:34:56;19.40;99.90
24152;DHT22;12311;50.866;4.332;2022-07-15T07:37:22;19.60;99.90
24152;DHT22;12311;50.866;4.332;2022-07-15T07:39:48;19.60;99.90
24152;DHT22;12311;50.866;4.332;2022-07-15T07:42:15;19.80;99.90
24152;DHT22;12311;50.866;4.332;2022-07-15T07:44:40;19.90;99.90
24152;DHT22;12311;50.866;4.332;2022-07-15T07:47:08;20.00;99.90
24152;DHT22;12311;50.866;4.332;2022-07-15T07:49:34;20.00;99.90
24152;DHT22;12311;50.866;4.332;2022-07-15T07:52:00;20.00;99.90
24152;DHT22;12311;50.866;4.332;2022-07-15T07:54:25;20.00;99.90
24152;DHT22;12311;50.866;4.332;2022-07-15T07:56:51;20.10;99.90
24152;DHT22;12311;50.866;4.332;2022-07-15T07:59:17;20.10;99.90
24152;DHT22;12311;50.866;4.332;2022-07-15T08:01:43;20.30;99.90
24152;DHT22;12311;50.866;4.332;2022-07-15T08:04:08;20.50;99.90
24152;DHT22;12311;50.866;4.332;2022-07-15T08:06:34;20.50;99.90
24152;DHT22;12311;50.866;4.332;2022-07-15T08:09:02;20.60;99.90
24152;DHT22;12311;50.866;4.332;2022-07-15T08:11:28;20.50;99.90
24152;DHT22;12311;50.866;4.332;2022-07-15T08:13:54;20.50;99.90
24152;DHT22;12311;50.866;4.332;2022-07-15T08:16:20;20.40;99.90
24152;DHT22;12311;50.866;4.332;2022-07-15T08:18:46;20.20;99.90
24152;DHT22;12311;50.866;4.332;2022-07-15T08:21:12;20.20;99.90
24152;DHT22;12311;50.866;4.332;2022-07-15T08:23:39;20.20;99.90
24152;DHT22;12311;50.866;4.332;2022-07-15T08:26:04;20.30;99.90
24152;DHT22;12311;50.866;4.332;2022-07-15T08:28:31;20.30;99.90
24152;DHT22;12311;50.866;4.332;2022-07-15T08:30:57;20.10;99.90
24152;DHT22;12311;50.866;4.332;2022-07-15T08:33:23;20.00;99.90
24152;DHT22;12311;50.866;4.332;2022-07-15T08:35:48;20.10;99.90
24152;DHT22;12311;50.866;4.332;2022-07-15T08:38:14;20.00;99.90
24152;DHT22;12311;50.866;4.332;2022-07-15T08:40:40;20.00;99.90
24152;DHT22;12311;50.866;4.332;2022-07-15T08:43:07;20.00;99.90
24152;DHT22;12311;50.866;4.332;2022-07-15T08:45:35;19.90;99.90
24152;DHT22;12311;50.866;4.332;2022-07-15T08:48:03;19.90;99.90
24152;DHT22;12311;50.866;4.332;2022-07-15T08:50:31;20.00;99.90
24152;DHT22;12311;50.866;4.332;2022-07-15T08:52:58;20.20;99.90
24152;DHT22;12311;50.866;4.332;2022-07-15T08:55:24;20.20;99.90
24152;DHT22;12311;50.866;4.332;2022-07-15T08:57:52;20.20;99.90
24152;DHT22;12311;50.866;4.332;2022-07-15T09:00:20;20.40;99.90
24152;DHT22;12311;50.866;4.332;2022-07-15T09:02:48;20.50;99.90
24152;DHT22;12311;50.866;4.332;2022-07-15T09:05:29;20.60;99.90
24152;DHT22;12311;50.866;4.332;2022-07-15T09:11:10;20.90;99.90
24152;DHT22;12311;50.866;4.332;2022-07-15T09:13:22;20.90;99.90
24152;DHT22;12311;50.866;4.332;2022-07-15T09:15:49;20.70;99.90
24152;DHT22;12311;50.866;4.332;2022-07-15T09:18:23;20.70;99.90
24152;DHT22;12311;50.866;4.332;2022-07-15T09:20:50;20.80;99.90
24152;DHT22;12311;50.866;4.332;2022-07-15T09:23:20;20.80;99.90
24152;DHT22;12311;50.866;4.332;2022-07-15T09:25:48;20.90;99.90
24152;DHT22;12311;50.866;4.332;2022-07-15T09:28:15;20.90;99.90
24152;DHT22;12311;50.866;4.332;2022-07-15T09:30:43;21.00;99.90
24152;DHT22;12311;50.866;4.332;2022-07-15T09:33:33;21.10;99.90
24152;DHT22;12311;50.866;4.332;2022-07-15T09:41:21;21.30;99.90
24152;DHT22;12311;50.866;4.332;2022-07-15T09:44:08;21.60;99.90
24152;DHT22;12311;50.866;4.332;2022-07-15T09:46:43;21.80;99.90
24152;DHT22;12311;50.866;4.332;2022-07-15T09:49:11;22.10;99.90
24152;DHT22;12311;50.866;4.332;2022-07-15T09:52:07;22.10;99.90
24152;DHT22;12311;50.866;4.332;2022-07-15T09:54:39;22.40;99.90
24152;DHT22;12311;50.866;4.332;2022-07-15T09:57:11;22.40;99.90
24152;DHT22;12311;50.866;4.332;2022-07-15T09:59:39;22.40;99.90
24152;DHT22;12311;50.866;4.332;2022-07-15T10:02:05;22.10;99.90
24152;DHT22;12311;50.866;4.332;2022-07-15T10:04:31;22.00;99.90
24152;DHT22;12311;50.866;4.332;2022-07-15T10:06:58;22.00;99.90
24152;DHT22;12311;50.866;4.332;2022-07-15T10:09:32;22.20;99.90
24152;DHT22;12311;50.866;4.332;2022-07-15T10:12:20;22.40;99.90
24152;DHT22;12311;50.866;4.332;2022-07-15T10:20:23;23.50;99.90
24152;DHT22;12311;50.866;4.332;2022-07-15T10:28:54;24.70;99.90
24152;DHT22;12311;50.866;4.332;2022-07-15T10:36:40;25.10;99.90
24152;DHT22;12311;50.866;4.332;2022-07-15T10:39:06;24.70;99.90
24152;DHT22;12311;50.866;4.332;2022-07-15T10:42:01;24.60;99.90
24152;DHT22;12311;50.866;4.332;2022-07-15T10:49:43;24.20;99.90
24152;DHT22;12311;50.866;4.332;2022-07-15T10:54:47;24.80;99.90
24152;DHT22;12311;50.866;4.332;2022-07-15T10:57:13;24.80;99.90
24152;DHT22;12311;50.866;4.332;2022-07-15T10:59:52;24.50;99.90
24152;DHT22;12311;50.866;4.332;2022-07-15T11:02:20;24.20;99.90
24152;DHT22;12311;50.866;4.332;2022-07-15T11:04:47;24.20;99.90
24152;DHT22;12311;50.866;4.332;2022-07-15T11:14:44;25.50;98.40
24152;DHT22;12311;50.866;4.332;2022-07-15T11:17:12;25.40;98.00
24152;DHT22;12311;50.866;4.332;2022-07-15T11:19:39;25.80;98.10
24152;DHT22;12311;50.866;4.332;2022-07-15T11:22:09;26.80;96.80
24152;DHT22;12311;50.866;4.332;2022-07-15T11:24:36;27.80;95.70
24152;DHT22;12311;50.866;4.332;2022-07-15T11:27:01;29.30;92.40
24152;DHT22;12311;50.866;4.332;2022-07-15T11:29:52;30.40;86.10
24152;DHT22;12311;50.866;4.332;2022-07-15T11:32:21;30.30;82.20
24152;DHT22;12311;50.866;4.332;2022-07-15T11:34:53;29.50;82.00
24152;DHT22;12311;50.866;4.332;2022-07-15T11:37:26;29.60;82.20
24152;DHT22;12311;50.866;4.332;2022-07-15T11:40:08;30.40;76.90
24152;DHT22;12311;50.866;4.332;2022-07-15T11:42:34;31.50;72.60
24152;DHT22;12311;50.866;4.332;2022-07-15T11:45:33;32.60;67.90
24152;DHT22;12311;50.866;4.332;2022-07-15T11:47:59;33.80;61.60
24152;DHT22;12311;50.866;4.332;2022-07-15T11:50:25;33.70;59.00
24152;DHT22;12311;50.866;4.332;2022-07-15T11:52:56;32.90;58.40
24152;DHT22;12311;50.866;4.332;2022-07-15T11:55:22;31.70;60.60
24152;DHT22;12311;50.866;4.332;2022-07-15T11:57:48;31.70;60.30
24152;DHT22;12311;50.866;4.332;2022-07-15T12:00:14;31.00;58.80
24152;DHT22;12311;50.866;4.332;2022-07-15T12:02:40;30.10;60.50
24152;DHT22;12311;50.866;4.332;2022-07-15T12:05:07;30.60;60.30
24152;DHT22;12311;50.866;4.332;2022-07-15T12:07:41;31.20;58.90
24152;DHT22;12311;50.866;4.332;2022-07-15T12:10:07;31.10;58.30
24152;DHT22;12311;50.866;4.332;2022-07-15T12:12:34;30.70;59.90
24152;DHT22;12311;50.866;4.332;2022-07-15T12:14:59;30.70;59.90
24152;DHT22;12311;50.866;4.332;2022-07-15T12:17:25;31.50;58.30
24152;DHT22;12311;50.866;4.332;2022-07-15T12:19:52;31.20;58.80
24152;DHT22;12311;50.866;4.332;2022-07-15T12:22:24;30.90;59.60
24152;DHT22;12311;50.866;4.332;2022-07-15T12:24:50;30.30;59.50
24152;DHT22;12311;50.866;4.332;2022-07-15T12:27:18;28.50;63.00
24152;DHT22;12311;50.866;4.332;2022-07-15T12:29:44;28.10;65.20
24152;DHT22;12311;50.866;4.332;2022-07-15T12:32:12;28.80;63.30
24152;DHT22;12311;50.866;4.332;2022-07-15T12:37:21;31.40;59.60
24152;DHT22;12311;50.866;4.332;2022-07-15T12:40:00;33.00;57.20
24152;DHT22;12311;50.866;4.332;2022-07-15T12:42:30;33.40;55.60
24152;DHT22;12311;50.866;4.332;2022-07-15T12:45:14;33.20;54.60
24152;DHT22;12311;50.866;4.332;2022-07-15T12:50:25;31.10;55.80
24152;DHT22;12311;50.866;4.332;2022-07-15T12:52:53;30.10;57.50
24152;DHT22;12311;50.866;4.332;2022-07-15T12:55:25;30.30;57.70
24152;DHT22;12311;50.866;4.332;2022-07-15T12:57:51;31.50;56.80
24152;DHT22;12311;50.866;4.332;2022-07-15T13:00:19;32.60;55.20
24152;DHT22;12311;50.866;4.332;2022-07-15T13:05:24;33.80;52.10
24152;DHT22;12311;50.866;4.332;2022-07-15T13:07:50;33.90;51.10
24152;DHT22;12311;50.866;4.332;2022-07-15T13:10:15;34.40;50.00
24152;DHT22;12311;50.866;4.332;2022-07-15T13:12:41;34.10;50.30
24152;DHT22;12311;50.866;4.332;2022-07-15T13:15:07;34.70;50.30
24152;DHT22;12311;50.866;4.332;2022-07-15T13:17:34;36.10;48.70
24152;DHT22;12311;50.866;4.332;2022-07-15T13:20:03;36.90;46.70
24152;DHT22;12311;50.866;4.332;2022-07-15T13:22:31;37.70;45.00
24152;DHT22;12311;50.866;4.332;2022-07-15T13:24:57;38.80;44.00
24152;DHT22;12311;50.866;4.332;2022-07-15T13:27:23;39.10;41.80
24152;DHT22;12311;50.866;4.332;2022-07-15T13:29:49;39.30;41.30
24152;DHT22;12311;50.866;4.332;2022-07-15T13:32:15;38.80;39.70
24152;DHT22;12311;50.866;4.332;2022-07-15T13:34:41;38.10;41.30
24152;DHT22;12311;50.866;4.332;2022-07-15T13:37:07;37.60;41.40
24152;DHT22;12311;50.866;4.332;2022-07-15T13:39:33;38.00;41.00
24152;DHT22;12311;50.866;4.332;2022-07-15T13:41:59;39.20;39.40
24152;DHT22;12311;50.866;4.332;2022-07-15T13:44:24;39.60;39.30
24152;DHT22;12311;50.866;4.332;2022-07-15T13:46:50;39.80;40.10
24152;DHT22;12311;50.866;4.332;2022-07-15T13:49:16;40.40;38.50
24152;DHT22;12311;50.866;4.332;2022-07-15T13:51:41;39.60;38.70
24152;DHT22;12311;50.866;4.332;2022-07-15T13:54:07;38.90;39.40
24152;DHT22;12311;50.866;4.332;2022-07-15T13:56:35;39.10;38.50
24152;DHT22;12311;50.866;4.332;2022-07-15T13:59:00;39.60;38.40
24152;DHT22;12311;50.866;4.332;2022-07-15T14:01:28;39.00;39.00
24152;DHT22;12311;50.866;4.332;2022-07-15T14:03:56;38.40;39.40
24152;DHT22;12311;50.866;4.332;2022-07-15T14:06:22;37.50;40.20
24152;DHT22;12311;50.866;4.332;2022-07-15T14:08:48;36.00;41.70
24152;DHT22;12311;50.866;4.332;2022-07-15T14:11:14;36.20;42.20
24152;DHT22;12311;50.866;4.332;2022-07-15T14:13:40;37.80;40.90
24152;DHT22;12311;50.866;4.332;2022-07-15T14:16:06;38.30;39.60
24152;DHT22;12311;50.866;4.332;2022-07-15T14:18:31;39.10;38.60
24152;DHT22;12311;50.866;4.332;2022-07-15T14:21:14;39.70;37.90
24152;DHT22;12311;50.866;4.332;2022-07-15T14:23:41;40.10;37.90
24152;DHT22;12311;50.866;4.332;2022-07-15T14:26:07;40.50;36.60
24152;DHT22;12311;50.866;4.332;2022-07-15T14:28:32;39.40;37.50
24152;DHT22;12311;50.866;4.332;2022-07-15T14:30:58;39.00;38.60
24152;DHT22;12311;50.866;4.332;2022-07-15T14:33:24;39.30;37.90
24152;DHT22;12311;50.866;4.332;2022-07-15T14:35:50;40.10;37.00
24152;DHT22;12311;50.866;4.332;2022-07-15T14:38:15;40.00;37.10
24152;DHT22;12311;50.866;4.332;2022-07-15T14:40:41;40.20;36.50
24152;DHT22;12311;50.866;4.332;2022-07-15T14:43:07;39.80;36.80
24152;DHT22;12311;50.866;4.332;2022-07-15T14:45:32;40.70;36.70
24152;DHT22;12311;50.866;4.332;2022-07-15T14:47:58;41.30;36.20
24152;DHT22;12311;50.866;4.332;2022-07-15T14:50:24;42.40;34.30
24152;DHT22;12311;50.866;4.332;2022-07-15T14:52:49;42.40;34.00
24152;DHT22;12311;50.866;4.332;2022-07-15T14:55:15;41.40;34.30
24152;DHT22;12311;50.866;4.332;2022-07-15T14:57:40;39.50;35.80
24152;DHT22;12311;50.866;4.332;2022-07-15T15:00:07;38.90;36.30
24152;DHT22;12311;50.866;4.332;2022-07-15T15:02:33;38.00;37.90
24152;DHT22;12311;50.866;4.332;2022-07-15T15:04:58;38.60;37.50
24152;DHT22;12311;50.866;4.332;2022-07-15T15:07:24;40.00;36.90
24152;DHT22;12311;50.866;4.332;2022-07-15T15:09:49;40.30;35.40
24152;DHT22;12311;50.866;4.332;2022-07-15T15:12:15;40.80;35.60
24152;DHT22;12311;50.866;4.332;2022-07-15T15:14:41;41.00;35.70
24152;DHT22;12311;50.866;4.332;2022-07-15T15:17:07;40.90;35.30
24152;DHT22;12311;50.866;4.332;2022-07-15T15:19:36;41.30;35.30
24152;DHT22;12311;50.866;4.332;2022-07-15T15:22:03;41.90;34.20
24152;DHT22;12311;50.866;4.332;2022-07-15T15:24:31;42.00;33.70
24152;DHT22;12311;50.866;4.332;2022-07-15T15:26:57;39.30;35.10
24152;DHT22;12311;50.866;4.332;2022-07-15T15:29:24;38.10;36.70
24152;DHT22;12311;50.866;4.332;2022-07-15T15:31:51;36.70;38.70
24152;DHT22;12311;50.866;4.332;2022-07-15T15:34:18;36.40;38.70
24152;DHT22;12311;50.866;4.332;2022-07-15T15:36:44;35.90;38.90
24152;DHT22;12311;50.866;4.332;2022-07-15T15:39:09;34.80;40.20
24152;DHT22;12311;50.866;4.332;2022-07-15T15:41:35;33.60;41.40
24152;DHT22;12311;50.866;4.332;2022-07-15T15:44:02;32.40;43.80
24152;DHT22;12311;50.866;4.332;2022-07-15T15:46:28;31.80;45.20
24152;DHT22;12311;50.866;4.332;2022-07-15T15:48:54;31.30;45.90
24152;DHT22;12311;50.866;4.332;2022-07-15T15:51:20;31.00;46.90
24152;DHT22;12311;50.866;4.332;2022-07-15T15:53:45;30.90;47.30
24152;DHT22;12311;50.866;4.332;2022-07-15T15:56:11;30.90;47.70
24152;DHT22;12311;50.866;4.332;2022-07-15T15:58:37;30.90;47.90
24152;DHT22;12311;50.866;4.332;2022-07-15T16:01:02;30.80;48.00
24152;DHT22;12311;50.866;4.332;2022-07-15T16:03:28;30.90;47.90
24152;DHT22;12311;50.866;4.332;2022-07-15T16:05:54;30.80;47.80
24152;DHT22;12311;50.866;4.332;2022-07-15T16:08:19;30.40;48.60
24152;DHT22;12311;50.866;4.332;2022-07-15T16:10:45;30.30;49.60
24152;DHT22;12311;50.866;4.332;2022-07-15T16:13:11;30.10;49.60
24152;DHT22;12311;50.866;4.332;2022-07-15T16:15:36;30.10;50.60
24152;DHT22;12311;50.866;4.332;2022-07-15T16:18:02;30.30;50.80
24152;DHT22;12311;50.866;4.332;2022-07-15T16:20:28;30.50;50.50